Time;durP1;ratioP1;P1;durP2;ratioP2;P2;SDS_P1;SDS_P2;PMS_P1;PMS_P2;Temp;Humidity;BMP_temperature;BMP_pressure;BME280_temperature;BME280_humidity;BME280_pressure;Samples;Min_cycle;Max_cycle;Signal;HPM_P1;HPM_P2
2023/05/24 00:02:06;;;;;;;25.47;13.63;;;;;;;-141.97;82.79;47655.53;4959565;28;20648;-82
2023/05/24 00:04:32;;;;;;;20.13;13.10;;;;;;;-141.97;82.62;47624.78;4976518;28;20530;-81
2023/05/24 00:06:57;;;;;;;20.10;12.77;;;;;;;-141.97;82.20;47670.91;4976210;28;20168;-82
2023/05/24 00:09:23;;;;;;;21.67;13.10;;;;;;;-141.97;82.23;47628.63;4976428;28;20177;-81
2023/05/24 00:11:48;;;;;;;18.87;13.00;;;;;;;-141.97;83.73;47588.28;4975852;28;20172;-82
2023/05/24 00:14:14;;;;;;;24.10;13.10;;;;;;;-141.97;83.09;47644.00;4976700;28;20227;-83
2023/05/24 00:16:39;;;;;;;24.00;12.97;;;;;;;-141.97;83.15;47657.47;4976134;28;20164;-82
2023/05/24 00:19:05;;;;;;;19.70;13.17;;;;;;;-141.97;82.76;47622.88;4976727;28;20637;-83
2023/05/24 00:21:31;;;;;;;19.97;13.00;;;;;;;-141.97;82.61;47644.00;4976304;28;20229;-83
2023/05/24 00:23:56;;;;;;;19.13;13.00;;;;;;;-141.97;82.70;47672.84;4976142;28;20196;-82
2023/05/24 00:26:22;;;;;;;21.77;13.73;;;;;;;-141.97;82.77;47584.44;4976305;28;20640;-82
2023/05/24 00:28:47;;;;;;;18.80;12.73;;;;;;;-141.97;82.67;47572.91;4976232;28;20250;-83
2023/05/24 00:31:12;;;;;;;18.30;12.57;;;;;;;-141.97;82.63;47788.19;4976131;28;20231;-83
2023/05/24 00:33:38;;;;;;;18.47;12.00;;;;;;;-141.97;82.90;47776.63;4975678;28;20565;-83
2023/05/24 00:36:03;;;;;;;18.83;12.83;;;;;;;-141.97;83.49;47613.25;4976052;28;20164;-83
2023/05/24 00:38:29;;;;;;;19.03;12.83;;;;;;;-141.97;83.20;47595.97;4975281;28;20168;-83
2023/05/24 00:40:59;;;;;;;19.90;13.07;;;;;;;-141.97;82.96;47638.25;4973929;28;20171;-82
2023/05/24 00:43:25;;;;;;;18.73;12.90;;;;;;;-141.97;82.61;47678.63;4975872;28;20759;-83
2023/05/24 00:46:18;;;;;;;21.87;13.27;;;;;;;-141.97;83.05;47676.69;4976172;28;20168;-83
2023/05/24 00:48:44;;;;;;;16.03;11.77;;;;;;;-141.97;83.46;47661.31;4975817;28;20187;-82
2023/05/24 00:51:11;;;;;;;17.23;11.80;;;;;;;-141.97;84.26;47640.16;4974718;28;20691;-82
2023/05/24 00:53:37;;;;;;;17.97;11.77;;;;;;;-141.97;85.17;47642.09;4975045;28;20207;-82
2023/05/24 00:56:03;;;;;;;17.93;12.20;;;;;;;-141.97;87.15;47630.56;4975171;28;20629;-82
2023/05/24 00:58:30;;;;;;;18.40;12.20;;;;;;;-141.97;88.05;47672.84;4975407;28;20574;-82
2023/05/24 01:01:01;;;;;;;17.73;12.00;;;;;;;-141.97;87.51;47653.63;4975670;28;20171;-82
2023/05/24 01:03:30;;;;;;;17.33;11.60;;;;;;;-141.97;87.79;47649.78;4956409;29;20192;-82
2023/05/24 01:05:57;;;;;;;21.20;12.07;;;;;;;-141.97;87.29;47649.78;4956042;29;20172;-83
2023/05/24 01:08:46;;;;;;;17.53;10.97;;;;;;;-141.97;87.16;47655.53;4955904;29;20172;-82
2023/05/24 01:11:31;;;;;;;18.83;11.87;;;;;;;-141.97;87.91;47661.31;4955988;29;20175;-83
2023/05/24 01:14:21;;;;;;;20.97;12.67;;;;;;;-141.97;88.14;47649.78;4955736;29;20169;-83
2023/05/24 01:17:00;;;;;;;18.13;11.73;;;;;;;-141.97;87.98;47665.16;4955668;29;20709;-82
2023/05/24 01:19:42;;;;;;;18.53;11.97;;;;;;;-141.97;88.48;47634.41;4955786;29;20193;-82
2023/05/24 01:22:44;;;;;;;18.87;11.30;;;;;;;-141.97;88.01;47653.63;4956190;29;20689;-82
2023/05/24 01:25:33;;;;;;;20.07;12.40;;;;;;;-141.97;88.77;47784.34;4955470;29;20620;-82
2023/05/24 01:27:59;;;;;;;19.57;12.23;;;;;;;-141.97;88.59;47686.31;4955712;29;20165;-82
2023/05/24 01:30:27;;;;;;;19.60;12.30;;;;;;;-141.97;88.82;47659.38;4955885;29;20157;-82
2023/05/24 01:32:53;;;;;;;20.53;12.00;;;;;;;-141.97;88.86;47628.63;4955910;29;20276;-83
2023/05/24 01:35:18;;;;;;;20.13;12.17;;;;;;;-141.97;89.05;47586.34;4955829;29;20293;-83
2023/05/24 01:37:43;;;;;;;16.93;11.90;;;;;;;-141.97;88.97;47669.00;4955896;29;20194;-82
2023/05/24 01:40:10;;;;;;;17.87;11.73;;;;;;;-141.97;88.77;47661.31;4955763;29;20161;-82
2023/05/24 01:42:57;;;;;;;17.70;12.30;;;;;;;-141.97;88.68;47684.38;4955335;29;20172;-83
2023/05/24 01:45:32;;;;;;;19.60;11.97;;;;;;;-141.97;89.34;47672.84;4955383;29;20651;-82
2023/05/24 01:48:05;;;;;;;18.77;11.93;;;;;;;-141.97;89.64;47682.47;4955617;29;20167;-82
2023/05/24 01:50:35;;;;;;;19.00;11.90;;;;;;;-141.97;89.18;47674.78;4955231;29;20170;-83
2023/05/24 01:53:07;;;;;;;18.67;11.73;;;;;;;-141.97;89.49;47636.31;4937962;29;20193;-81
2023/05/24 01:55:36;;;;;;;17.33;12.07;;;;;;;-141.97;89.13;47684.38;4959028;29;20161;-83
2023/05/24 01:58:03;;;;;;;17.73;12.27;;;;;;;-141.97;89.04;47622.88;4955006;29;20184;-83
2023/05/24 02:00:30;;;;;;;16.60;12.23;;;;;;;-141.97;89.10;47665.16;4957702;29;20198;-82
2023/05/24 02:02:57;;;;;;;18.00;11.23;;;;;;;-141.97;89.61;47670.91;4955326;29;20269;-82
2023/05/24 02:05:22;;;;;;;18.17;11.73;;;;;;;-141.97;89.31;47688.22;4954917;29;20205;-82
2023/05/24 02:07:48;;;;;;;17.23;10.93;;;;;;;-141.97;89.05;47690.16;4954708;28;20165;-82
2023/05/24 02:10:13;;;;;;;17.13;11.17;;;;;;;-141.97;88.73;47678.63;4953207;29;20177;-83
2023/05/24 02:12:38;;;;;;;15.57;10.63;;;;;;;-141.97;88.71;47647.84;4937885;29;20180;-82
2023/05/24 02:15:05;;;;;;;16.13;10.47;;;;;;;-141.97;88.21;47661.31;4968351;29;20165;-82
2023/05/24 02:17:31;;;;;;;16.20;10.70;;;;;;;-141.97;87.48;47640.16;4970985;29;20165;-83
2023/05/24 02:19:57;;;;;;;15.70;10.97;;;;;;;-141.97;86.92;47653.63;4971563;29;20171;-83
2023/05/24 02:22:23;;;;;;;16.20;10.67;;;;;;;-141.97;85.99;47661.31;4963564;28;20181;-83
2023/05/24 02:24:48;;;;;;;17.00;10.63;;;;;;;-141.97;85.76;47653.63;4955802;28;20591;-82
2023/05/24 02:27:14;;;;;;;18.73;10.47;;;;;;;-141.97;85.97;47669.00;4959203;28;20255;-83
2023/05/24 02:29:40;;;;;;;14.60;9.97;;;;;;;-141.97;85.91;47680.53;4955175;29;20172;-83
2023/05/24 02:32:06;;;;;;;15.97;10.70;;;;;;;-141.97;85.68;47642.09;4955226;28;20160;-82
2023/05/24 02:34:31;;;;;;;13.73;10.00;;;;;;;-141.97;85.39;47690.16;4955439;29;20175;-82
2023/05/24 02:36:57;;;;;;;16.83;10.63;;;;;;;-141.97;85.01;47674.78;4954066;28;20248;-83
2023/05/24 02:39:23;;;;;;;17.37;10.07;;;;;;;-141.97;84.82;47651.69;4954844;28;20173;-83
2023/05/24 02:41:48;;;;;;;16.77;11.00;;;;;;;-141.97;84.74;47676.69;4954550;29;20231;-82
2023/05/24 02:44:14;;;;;;;17.73;10.80;;;;;;;-141.97;84.81;47665.16;4969017;28;20258;-82
2023/05/24 02:46:39;;;;;;;16.97;10.60;;;;;;;-141.97;84.50;47642.09;4974102;28;20685;-82
2023/05/24 02:49:04;;;;;;;16.50;10.40;;;;;;;-141.97;84.60;47644.00;4973927;28;20223;-83
2023/05/24 02:51:31;;;;;;;14.40;10.27;;;;;;;-141.97;84.39;47613.25;4973466;28;20163;-83
2023/05/24 02:53:57;;;;;;;14.97;10.53;;;;;;;-141.97;84.72;47647.84;4973827;28;20518;-83
2023/05/24 02:56:23;;;;;;;14.40;10.30;;;;;;;-141.97;84.58;47672.84;4974140;28;20176;-82
2023/05/24 02:58:48;;;;;;;16.17;10.50;;;;;;;-141.97;84.61;47661.31;4972617;28;20211;-82
2023/05/24 03:01:14;;;;;;;15.27;10.13;;;;;;;-141.97;84.64;47624.78;4973640;28;20274;-82
2023/05/24 03:03:39;;;;;;;17.53;10.03;;;;;;;-141.97;84.48;47674.78;4973042;28;20172;-82
2023/05/24 03:06:08;;;;;;;18.43;10.67;;;;;;;-141.97;83.93;47669.00;4973587;28;20165;-83
2023/05/24 03:08:36;;;;;;;15.93;10.53;;;;;;;-141.97;83.77;47676.69;4973729;28;20165;-82
2023/05/24 03:11:01;;;;;;;18.63;10.93;;;;;;;-141.97;83.57;47669.00;4973517;28;20184;-83
2023/05/24 03:13:27;;;;;;;19.73;11.60;;;;;;;-141.97;83.68;47657.47;4973676;28;20245;-83
2023/05/24 03:15:52;;;;;;;14.43;10.90;;;;;;;-141.97;83.78;47645.94;4973524;28;20175;-82
2023/05/24 03:18:17;;;;;;;17.00;11.07;;;;;;;-141.97;83.18;47659.38;4973586;28;20617;-83
2023/05/24 03:20:43;;;;;;;20.27;11.50;;;;;;;-141.97;82.76;47661.31;4976534;28;20344;-82
2023/05/24 03:23:08;;;;;;;18.80;11.17;;;;;;;-141.97;82.40;47663.22;4976990;28;20176;-82
2023/05/24 03:25:34;;;;;;;18.07;11.10;;;;;;;-141.97;82.95;47661.31;4977164;28;20200;-81
2023/05/24 03:28:01;;;;;;;18.83;11.30;;;;;;;-141.97;83.22;47615.19;4977390;28;20165;-82
2023/05/24 03:30:27;;;;;;;18.23;11.37;;;;;;;-141.97;83.00;47670.91;4977246;28;20164;-82
2023/05/24 03:32:52;;;;;;;17.00;11.80;;;;;;;-141.97;83.15;47665.16;4976497;28;20243;-82
2023/05/24 03:35:18;;;;;;;21.67;12.57;;;;;;;-141.97;82.76;47611.34;4976823;28;20589;-82
2023/05/24 03:37:43;;;;;;;19.80;11.83;;;;;;;-141.97;82.53;47651.69;4976768;28;20183;-82
2023/05/24 03:40:09;;;;;;;16.43;11.90;;;;;;;-141.97;82.47;47638.25;4976617;28;20164;-83
2023/05/24 03:42:34;;;;;;;20.27;12.20;;;;;;;-141.97;82.52;47665.16;4977388;28;20569;-82
2023/05/24 03:44:59;;;;;;;17.50;12.00;;;;;;;-141.97;82.67;47651.69;4977128;28;20206;-82
2023/05/24 03:47:25;;;;;;;15.00;10.63;;;;;;;-141.97;82.63;47676.69;4975391;28;20176;-81
2023/05/24 03:49:50;;;;;;;17.60;11.20;;;;;;;-141.97;82.25;47665.16;4976779;28;20195;-82
2023/05/24 03:52:15;;;;;;;17.00;10.87;;;;;;;-141.97;82.03;47657.47;4977812;28;20172;-82
2023/05/24 03:54:41;;;;;;;19.83;12.47;;;;;;;-141.97;81.60;47665.16;4978361;28;20172;-82
2023/05/24 03:57:06;;;;;;;20.23;13.37;;;;;;;-141.97;80.10;47595.97;4977159;28;20169;-82
2023/05/24 03:59:32;;;;;;;21.30;12.47;;;;;;;-141.97;79.14;47657.47;4996547;28;20158;-81
2023/05/24 04:01:57;;;;;;;22.00;11.83;;;;;;;-141.97;79.29;47793.94;4979627;28;20260;-83
2023/05/24 04:04:23;;;;;;;20.20;12.67;;;;;;;-141.97;78.57;47638.25;4977647;28;20567;-82
2023/05/24 04:06:48;;;;;;;15.27;10.57;;;;;;;-141.97;78.08;47622.88;4975225;28;20164;-83
2023/05/24 04:09:14;;;;;;;16.73;10.80;;;;;;;-141.97;77.37;47620.94;4977292;28;20176;-82
2023/05/24 04:11:40;;;;;;;19.00;10.50;;;;;;;-141.97;76.48;47546.00;4976915;28;20536;-82
2023/05/24 04:14:06;;;;;;;17.63;10.53;;;;;;;-141.97;75.99;47680.53;4976832;28;20156;-82
2023/05/24 04:16:34;;;;;;;19.30;10.40;;;;;;;-141.97;76.22;47619.03;4977277;28;20176;-82
2023/05/24 04:19:03;;;;;;;16.33;10.60;;;;;;;-141.97;76.52;47634.41;4976656;28;20164;-83
2023/05/24 04:21:29;;;;;;;18.20;9.93;;;;;;;-141.97;76.23;47644.00;4976847;28;20164;-81
2023/05/24 04:23:59;;;;;;;17.80;9.70;;;;;;;-141.97;75.89;47661.31;4976407;28;20196;-80
2023/05/24 04:26:24;;;;;;;15.87;9.77;;;;;;;-141.97;75.41;47653.63;4975980;28;20168;-82
2023/05/24 04:28:50;;;;;;;13.47;9.73;;;;;;;-141.97;75.40;47586.34;4976330;28;20183;-82
2023/05/24 04:31:15;;;;;;;13.60;9.73;;;;;;;-141.97;75.20;47574.81;4976397;28;20795;-82
2023/05/24 04:33:41;;;;;;;17.80;9.60;;;;;;;-141.97;74.92;47615.19;4976181;28;20164;-82
2023/05/24 04:36:07;;;;;;;34.00;21.83;;;;;;;-141.97;74.45;47661.31;4976283;28;20176;-81
2023/05/24 04:38:34;;;;;;;32.33;19.40;;;;;;;-141.97;74.78;47630.56;4976441;28;20311;-81
2023/05/24 04:41:00;;;;;;;23.67;13.87;;;;;;;-141.97;74.38;47688.22;4976780;28;20168;-83
2023/05/24 04:43:26;;;;;;;18.83;12.30;;;;;;;-141.97;73.74;47645.94;4976708;28;20285;-82
2023/05/24 04:45:56;;;;;;;13.43;9.23;;;;;;;-141.97;74.38;47672.84;4976869;28;20172;-84
2023/05/24 04:48:23;;;;;;;14.37;9.47;;;;;;;-141.97;75.81;47653.63;4975983;28;20168;-82
2023/05/24 04:50:51;;;;;;;12.60;9.50;;;;;;;-141.97;75.89;47669.00;4976671;28;20171;-82
2023/05/24 04:53:17;;;;;;;14.90;9.43;;;;;;;-141.97;75.96;47640.16;4976328;28;20180;-80
2023/05/24 04:55:42;;;;;;;13.30;9.33;;;;;;;-141.97;75.83;47661.31;4974769;28;20692;-81
2023/05/24 04:58:07;;;;;;;13.87;10.37;;;;;;;-141.97;76.37;47655.53;4974904;28;20246;-83
2023/05/24 05:00:33;;;;;;;12.87;8.90;;;;;;;-141.97;75.14;47617.09;4976237;28;20247;-83
2023/05/24 05:02:58;;;;;;;14.60;9.20;;;;;;;-141.97;74.87;47653.63;4976119;28;20601;-83
2023/05/24 05:05:24;;;;;;;13.80;8.90;;;;;;;-141.97;73.71;47659.38;4976192;28;20251;-83
2023/05/24 05:07:49;;;;;;;16.67;9.03;;;;;;;-141.97;72.90;47642.09;4975803;28;20168;-83
2023/05/24 05:10:15;;;;;;;15.57;10.10;;;;;;;-141.97;72.61;47636.31;4975761;28;20168;-81
2023/05/24 05:12:40;;;;;;;12.97;9.20;;;;;;;-141.97;72.09;47626.72;4976196;28;20186;-82
2023/05/24 05:15:07;;;;;;;16.87;9.80;;;;;;;-141.97;71.48;47651.69;4976208;28;20179;-82
2023/05/24 05:17:32;;;;;;;16.97;10.10;;;;;;;-141.97;71.74;47607.50;4976040;28;20262;-83
2023/05/24 05:19:57;;;;;;;18.83;9.67;;;;;;;-141.97;71.12;47669.00;4976190;28;20651;-83
2023/05/24 05:22:23;;;;;;;18.30;10.80;;;;;;;-141.97;70.60;47678.63;4976062;28;20168;-81
2023/05/24 05:24:48;;;;;;;21.20;11.87;;;;;;;-141.97;69.70;47590.19;4975431;28;20307;-82
2023/05/24 05:27:13;;;;;;;18.23;9.97;;;;;;;-141.97;69.00;47642.09;4975778;28;20168;-82
2023/05/24 05:29:40;;;;;;;13.57;9.83;;;;;;;-141.97;69.43;47676.69;4978861;28;20171;-84
2023/05/24 05:32:05;;;;;;;16.10;10.13;;;;;;;-141.97;69.75;47728.59;4986860;28;20160;-81
2023/05/24 05:34:31;;;;;;;16.50;10.77;;;;;;;-141.97;68.70;47563.28;4988329;28;20167;-81
2023/05/24 05:36:56;;;;;;;14.63;9.97;;;;;;;-141.97;67.94;47586.34;4972193;28;20343;-83
2023/05/24 05:39:22;;;;;;;16.03;11.50;;;;;;;-141.97;70.15;47674.78;4989203;28;20675;-82
2023/05/24 05:41:47;;;;;;;15.33;10.70;;;;;;;-141.97;68.21;47728.59;4969713;28;20183;-81
2023/05/24 05:44:13;;;;;;;15.73;10.47;;;;;;;-141.97;66.73;47630.56;4979404;28;20779;-82
2023/05/24 05:46:38;;;;;;;17.30;10.47;;;;;;;-141.97;65.43;47655.53;4975699;28;20200;-80
2023/05/24 05:49:05;;;;;;;16.43;11.63;;;;;;;-141.97;66.23;47563.28;4974590;28;20207;-82
2023/05/24 05:51:31;;;;;;;14.20;9.47;;;;;;;-141.97;66.43;47630.56;4975512;28;20168;-83
2023/05/24 05:53:56;;;;;;;13.53;9.40;;;;;;;-141.97;65.79;47565.22;4975220;28;20160;-82
2023/05/24 05:56:21;;;;;;;15.43;9.83;;;;;;;-141.97;66.05;47615.19;4975678;28;20199;-83
2023/05/24 05:58:47;;;;;;;22.03;12.97;;;;;;;-141.97;65.22;47613.25;4975431;28;20592;-81
2023/05/24 06:01:14;;;;;;;12.80;9.70;;;;;;;-141.97;64.14;47599.81;4990469;28;20220;-84
2023/05/24 06:03:40;;;;;;;16.50;10.37;;;;;;;-141.97;64.13;47572.91;4989223;28;20172;-84
2023/05/24 06:06:05;;;;;;;21.40;10.33;;;;;;;-141.97;64.36;47592.13;4976763;28;20198;-83
2023/05/24 06:08:33;;;;;;;18.57;12.23;;;;;;;-141.97;63.57;47711.28;4974697;28;20564;-83
2023/05/24 06:11:01;;;;;;;42.67;24.27;;;;;;;-141.97;63.28;47695.91;4975666;28;20183;-83
2023/05/24 06:13:27;;;;;;;13.10;9.40;;;;;;;-141.97;62.79;47572.91;4974931;28;20612;-82
2023/05/24 06:15:53;;;;;;;16.57;10.50;;;;;;;-141.97;62.23;47665.16;4977100;28;20247;-84
2023/05/24 06:18:19;;;;;;;20.17;12.47;;;;;;;-141.97;62.61;47569.06;4982092;28;20263;-84
2023/05/24 06:20:45;;;;;;;36.77;17.83;;;;;;;-141.97;62.46;47622.88;4979048;28;20277;-83
2023/05/24 06:23:11;;;;;;;27.73;15.87;;;;;;;-141.97;62.99;47580.59;4983340;28;20549;-84
2023/05/24 06:25:37;;;;;;;10.70;8.23;;;;;;;-141.97;62.90;47576.75;4966641;28;20219;-83
2023/05/24 06:28:03;;;;;;;19.53;11.40;;;;;;;-141.97;62.55;47805.47;4977284;28;20605;-83
2023/05/24 06:30:28;;;;;;;40.60;20.87;;;;;;;-141.97;61.73;47544.06;4974664;28;20232;-83
2023/05/24 06:32:55;;;;;;;20.23;10.90;;;;;;;-141.97;60.73;47607.50;4957796;28;20179;-83
2023/05/24 06:35:21;;;;;;;14.17;9.30;;;;;;;-141.97;59.84;47549.84;4974918;28;20270;-83
2023/05/24 06:37:46;;;;;;;13.03;8.40;;;;;;;-141.97;59.22;47569.06;4974451;28;20160;-84
2023/05/24 06:40:12;;;;;;;11.20;7.97;;;;;;;-141.97;59.14;47538.28;4972998;28;20220;-83
2023/05/24 06:42:38;;;;;;;10.13;8.17;;;;;;;-141.97;58.87;47607.50;4976696;28;20232;-83
2023/05/24 06:45:04;;;;;;;21.77;12.17;;;;;;;-141.97;58.53;47767.03;4975387;28;20195;-82
2023/05/24 06:47:30;;;;;;;14.70;8.07;;;;;;;-141.97;57.87;47732.44;4974287;28;20522;-83
2023/05/24 06:49:55;;;;;;;9.43;7.60;;;;;;;-141.97;58.29;47601.72;4974640;28;20175;-83
2023/05/24 06:52:21;;;;;;;16.70;11.27;;;;;;;-141.97;57.99;47595.97;4957158;28;20629;-83
2023/05/24 06:54:47;;;;;;;25.87;16.43;;;;;;;-141.97;57.11;47747.81;4960477;28;20179;-83
2023/05/24 06:57:13;;;;;;;20.57;12.63;;;;;;;-141.97;56.62;47588.28;4978660;28;20175;-83
2023/05/24 06:59:38;;;;;;;36.03;20.53;;;;;;;-141.97;57.01;47586.34;4978470;28;20190;-83
2023/05/24 07:02:04;;;;;;;39.27;21.67;;;;;;;-141.97;57.89;47607.50;4977864;28;20198;-84
2023/05/24 07:04:29;;;;;;;21.27;11.83;;;;;;;-141.97;57.57;47497.94;4977608;28;20279;-83
2023/05/24 07:06:56;;;;;;;13.00;8.80;;;;;;;-141.97;57.57;47586.34;4978138;28;20168;-83
2023/05/24 07:09:21;;;;;;;12.63;8.77;;;;;;;-141.97;58.56;47595.97;4977746;28;20164;-83
2023/05/24 07:11:47;;;;;;;10.47;8.27;;;;;;;-141.97;58.51;47588.28;4959565;28;20243;-84
2023/05/24 07:14:12;;;;;;;10.10;8.00;;;;;;;-141.97;59.07;47647.84;4978283;28;20275;-83
2023/05/24 07:16:37;;;;;;;38.73;19.30;;;;;;;-141.97;57.02;47584.44;4960468;28;20172;-85
2023/05/24 07:19:03;;;;;;;12.27;9.13;;;;;;;-141.97;55.56;47667.06;4977493;28;20588;-85
2023/05/24 07:21:28;;;;;;;13.87;10.07;;;;;;;-141.97;55.67;47526.75;4984583;28;20212;-84
2023/05/24 07:23:53;;;;;;;14.50;10.10;;;;;;;-141.97;54.71;47695.91;4996804;28;20202;-85
2023/05/24 07:26:19;;;;;;;14.33;9.63;;;;;;;-141.97;54.70;47740.13;4980234;28;20654;-83
2023/05/24 07:28:45;;;;;;;19.73;12.40;;;;;;;-141.97;54.37;47586.34;4998743;28;20246;-85
2023/05/24 07:31:10;;;;;;;13.17;9.77;;;;;;;-141.97;55.57;47501.78;4997051;28;20251;-84
2023/05/24 07:33:36;;;;;;;13.03;9.30;;;;;;;-141.97;54.02;47549.84;4997456;28;20172;-84
2023/05/24 07:36:03;;;;;;;10.10;8.03;;;;;;;-141.97;54.44;47580.59;4996917;28;20251;-84
2023/05/24 07:38:29;;;;;;;17.13;10.53;;;;;;;-141.97;53.76;47497.94;4998470;28;20283;-84
2023/05/24 07:40:56;;;;;;;14.00;8.17;;;;;;;-141.97;53.09;47649.78;4998070;28;20210;-87
2023/05/24 07:43:21;;;;;;;10.83;8.27;;;;;;;-141.97;52.23;47718.97;4997745;28;20674;-84
2023/05/24 07:45:46;;;;;;;35.13;19.23;;;;;;;-141.97;52.07;47553.69;4997737;28;20282;-84
2023/05/24 07:48:12;;;;;;;19.57;12.40;;;;;;;-141.97;51.25;47584.44;4998032;28;20163;-84
2023/05/24 07:50:37;;;;;;;21.23;14.30;;;;;;;-141.97;51.00;47534.44;4997742;28;20174;-85
2023/05/24 07:53:05;;;;;;;10.53;8.03;;;;;;;-141.97;50.15;47465.25;4978999;28;20171;-84
2023/05/24 07:55:30;;;;;;;10.53;7.77;;;;;;;-141.97;51.03;47505.63;4996853;28;20151;-83
2023/05/24 07:57:55;;;;;;;9.27;7.10;;;;;;;-141.97;49.88;47499.84;4996786;28;20247;-82
2023/05/24 08:00:21;;;;;;;11.37;7.63;;;;;;;-141.97;49.65;47569.06;4997217;28;20695;-84
2023/05/24 08:02:47;;;;;;;9.90;7.30;;;;;;;-141.97;48.82;47499.84;5009480;28;20203;-83
2023/05/24 08:05:13;;;;;;;8.97;7.40;;;;;;;-141.97;49.90;47742.03;5011141;28;20191;-85
2023/05/24 08:07:40;;;;;;;11.50;8.13;;;;;;;-141.97;48.92;47365.31;5004320;28;20194;-84
2023/05/24 08:10:06;;;;;;;9.32;7.35;;;;;;;-141.97;48.52;47438.34;4996000;28;20168;-85
2023/05/24 08:12:32;;;;;;;10.98;7.13;;;;;;;-141.97;48.52;47451.81;4995666;28;20649;-84
2023/05/24 08:14:57;;;;;;;9.47;7.57;;;;;;;-141.97;47.47;47494.09;4977911;28;20173;-84
2023/05/24 08:17:23;;;;;;;11.20;8.23;;;;;;;-141.97;47.06;47542.16;4995423;28;20223;-86
2023/05/24 08:19:49;;;;;;;10.77;7.65;;;;;;;-141.97;46.12;47684.38;4994891;28;20173;-86
2023/05/24 08:22:15;;;;;;;30.83;19.58;;;;;;;-141.97;45.29;47472.94;4995184;28;20173;-87
2023/05/24 08:24:40;;;;;;;9.75;8.35;;;;;;;-141.97;45.15;47657.47;4995586;28;20229;-86
2023/05/24 08:27:06;;;;;;;14.15;8.20;;;;;;;-141.97;44.08;47457.56;4995137;28;20581;-86
2023/05/24 08:29:32;;;;;;;14.88;7.43;;;;;;;-141.97;45.00;47732.44;4977040;28;20257;-86
2023/05/24 08:31:57;;;;;;;9.52;7.00;;;;;;;-141.97;44.58;47359.56;4994810;28;20182;-86
2023/05/24 08:34:22;;;;;;;9.13;7.72;;;;;;;-141.97;44.49;47436.44;4995151;28;20190;-85
2023/05/24 08:36:48;;;;;;;13.32;9.57;;;;;;;-141.97;44.42;47494.09;4995267;28;20167;-86
2023/05/24 08:39:14;;;;;;;19.23;14.32;;;;;;;-141.97;44.65;47517.16;4995086;28;20489;-86
2023/05/24 08:41:40;;;;;;;9.02;6.78;;;;;;;-141.97;43.70;47555.59;4978449;28;20175;-86
2023/05/24 08:44:08;;;;;;;8.77;6.90;;;;;;;-141.97;43.21;47538.28;4995634;28;20234;-87
2023/05/24 08:46:35;;;;;;;8.93;7.28;;;;;;;-141.97;42.70;47524.84;4995991;28;20251;-84
2023/05/24 08:49:06;;;;;;;16.08;8.18;;;;;;;-141.97;43.36;47522.91;4996414;28;20161;-86
2023/05/24 08:51:32;;;;;;;11.18;8.43;;;;;;;-141.97;43.59;47511.38;4996280;28;20182;-84
2023/05/24 08:53:59;;;;;;;10.07;8.25;;;;;;;-141.97;43.01;47592.13;5004799;28;20207;-85
2023/05/24 08:56:25;;;;;;;23.05;14.63;;;;;;;-141.97;42.22;47532.53;5015052;28;20162;-85
2023/05/24 08:58:53;;;;;;;17.50;12.40;;;;;;;-141.97;43.53;47511.38;4997405;28;20183;-84
2023/05/24 09:01:19;;;;;;;14.93;9.63;;;;;;;-141.97;42.70;47461.41;5013340;28;20170;-85
2023/05/24 09:03:46;;;;;;;13.95;9.35;;;;;;;-141.97;42.61;47446.03;4997109;28;20171;-87
2023/05/24 09:06:15;;;;;;;12.13;8.18;;;;;;;-141.97;41.53;47513.31;4996101;28;20551;-85
2023/05/24 09:08:41;;;;;;;12.73;10.10;;;;;;;-141.97;42.26;47519.06;4995775;28;20181;-85
2023/05/24 09:11:07;;;;;;;12.80;8.15;;;;;;;-141.97;41.21;47457.56;4995570;28;20204;-86
2023/05/24 09:13:33;;;;;;;12.57;7.88;;;;;;;-141.97;40.66;47472.94;4995560;28;20166;-86
2023/05/24 09:15:59;;;;;;;8.57;6.38;;;;;;;-141.97;41.52;47474.88;4977934;28;20171;-87
2023/05/24 09:18:25;;;;;;;6.93;6.22;;;;;;;-141.97;40.90;47507.53;4993783;28;20224;-87
2023/05/24 09:20:50;;;;;;;7.15;6.32;;;;;;;-141.97;40.60;47453.72;4994104;28;20533;-87
2023/05/24 09:23:17;;;;;;;8.60;6.70;;;;;;;-141.97;39.79;47492.16;4994595;28;20170;-85
2023/05/24 09:25:46;;;;;;;7.85;6.10;;;;;;;-141.97;40.23;47484.47;4993699;28;20191;-85
2023/05/24 09:28:17;;;;;;;7.22;5.90;;;;;;;-141.97;41.30;47519.06;4994418;28;20254;-85
2023/05/24 09:30:43;;;;;;;7.60;6.20;;;;;;;-141.97;39.47;47494.09;4994055;28;20627;-86
2023/05/24 09:33:10;;;;;;;9.18;7.00;;;;;;;-141.97;39.71;47349.94;4994677;28;20232;-85
2023/05/24 09:35:35;;;;;;;8.55;6.07;;;;;;;-141.97;39.54;47680.53;4994566;28;20195;-87
2023/05/24 09:38:02;;;;;;;10.43;6.28;;;;;;;-141.97;39.24;47472.94;4994930;28;20202;-85
2023/05/24 09:40:28;;;;;;;6.00;5.22;;;;;;;-141.97;37.14;47501.78;4995352;28;20152;-85
2023/05/24 09:43:08;;;;;;;8.02;5.20;;;;;;;-141.97;35.44;47471.03;4989905;28;20208;-85
2023/05/24 09:45:54;;;;;;;6.57;5.40;;;;;;;-141.97;36.00;47490.25;4981368;28;20188;-85
2023/05/24 09:48:20;;;;;;;7.75;5.40;;;;;;;-141.97;35.95;47699.75;4981629;28;20168;-85
2023/05/24 09:51:08;;;;;;;6.47;5.57;;;;;;;-141.97;36.38;47488.31;4976656;28;20624;-85
2023/05/24 09:53:34;;;;;;;10.02;5.68;;;;;;;-141.97;37.16;47492.16;4976120;28;20167;-87
2023/05/24 09:56:03;;;;;;;6.50;5.45;;;;;;;-141.97;36.96;47438.34;4976143;28;20171;-86
2023/05/24 09:58:32;;;;;;;8.00;5.63;;;;;;;-141.97;36.57;47449.88;4975277;28;20191;-86
2023/05/24 10:01:06;;;;;;;6.10;5.50;;;;;;;-141.97;36.36;47488.31;4974945;28;20230;-86
2023/05/24 10:03:31;;;;;;;7.72;5.93;;;;;;;-141.97;36.05;47453.72;4980665;28;20187;-85
2023/05/24 10:05:57;;;;;;;6.82;5.90;;;;;;;-141.97;35.95;47436.44;4994850;28;20215;-85
2023/05/24 10:08:23;;;;;;;6.45;5.63;;;;;;;-141.97;35.64;47469.09;4983121;28;20166;-87
2023/05/24 10:10:48;;;;;;;6.28;5.43;;;;;;;-141.97;35.63;47526.75;4975026;28;20175;-86
2023/05/24 10:13:16;;;;;;;8.57;5.72;;;;;;;-141.97;35.75;47484.47;4975071;28;20957;-85
2023/05/24 10:15:43;;;;;;;10.98;6.00;;;;;;;-141.97;36.31;47461.41;4957742;28;20166;-84
2023/05/24 10:18:09;;;;;;;8.35;5.90;;;;;;;-141.97;35.89;47496.00;4974899;28;20200;-86
2023/05/24 10:20:35;;;;;;;19.40;14.10;;;;;;;-141.97;35.35;47346.09;4973807;28;20171;-87
2023/05/24 10:23:06;;;;;;;11.00;8.07;;;;;;;-141.97;35.89;47398.00;4974433;28;20172;-85
2023/05/24 10:25:34;;;;;;;12.07;7.55;;;;;;;-141.97;35.88;47634.41;4974189;28;20253;-84
2023/05/24 10:28:05;;;;;;;8.40;6.00;;;;;;;-141.97;35.43;47449.88;4973788;28;20160;-87
2023/05/24 10:30:41;;;;;;;15.38;10.85;;;;;;;-141.97;35.44;47449.88;4974266;28;20160;-85
2023/05/24 10:33:08;;;;;;;8.25;6.00;;;;;;;-141.97;35.17;47478.72;4974509;28;20167;-86
2023/05/24 10:35:36;;;;;;;7.30;6.45;;;;;;;-141.97;35.29;47488.31;4974464;28;20227;-86
2023/05/24 10:38:09;;;;;;;8.20;5.93;;;;;;;-141.97;35.75;47484.47;4974338;28;20167;-85
2023/05/24 10:40:40;;;;;;;9.77;5.90;;;;;;;-141.97;35.00;47653.63;4974387;28;20165;-84
2023/05/24 10:43:07;;;;;;;6.63;5.90;;;;;;;-141.97;35.04;47438.34;4974561;28;20656;-86
2023/05/24 10:45:36;;;;;;;8.75;6.20;;;;;;;-141.97;34.97;47490.25;4974469;28;20603;-84
2023/05/24 10:48:28;;;;;;;9.13;6.07;;;;;;;-141.97;34.45;47442.19;4974094;28;20254;-87
2023/05/24 10:50:54;;;;;;;7.93;5.82;;;;;;;-141.97;34.19;47457.56;4914833;29;20232;-86
2023/05/24 10:53:22;;;;;;;9.23;5.80;;;;;;;-141.97;34.12;47644.00;4914446;29;20228;-86
2023/05/24 10:55:51;;;;;;;6.97;5.72;;;;;;;-141.97;34.41;47469.09;4914834;29;20659;-85
2023/05/24 10:58:17;;;;;;;7.78;5.43;;;;;;;-141.97;34.27;47292.28;4914791;29;20301;-84
2023/05/24 11:00:44;;;;;;;7.85;5.55;;;;;;;-141.97;33.04;47428.75;4914747;29;20658;-83
2023/05/24 11:03:11;;;;;;;7.70;5.30;;;;;;;-141.97;33.43;47432.59;4914892;29;20685;-85
2023/05/24 11:05:46;;;;;;;7.47;5.05;;;;;;;-141.97;32.31;47415.28;4914222;29;20196;-84
2023/05/24 11:08:12;;;;;;;5.88;5.10;;;;;;;-141.97;32.39;47657.47;4913979;29;20187;-85